Aviation Digital Data Service (ADDS)

Output produced by METARs form (0053 UTC 23 March 2019)
found at http://www.aviationweather.gov/metar/data/
 
Forecast for: ZGHA (HUANGHUA/CHANGSH, CN)
Text: TAF ZGHA 221905Z 2300/2324 35004MPS 2500 BR NSC TX16/2307Z TN09/2300Z
Forecast period: 0000 UTC 23 March 2019 to 0000 UTC 24 March 2019
Forecast type: FROM: standard forecast or significant change
Winds: from the N (350 degrees) at 9 MPH (8 knots; 4.1 m/s)
Visibility: 1.55 miles (2.49 km)
Ceiling: unknown
Clouds: missing
Weather: BR  (mist)
Text: BECMG 2300/2301 4000
Forecast period: 0000 UTC 23 March 2019 to 0000 UTC 24 March 2019
Forecast type: BECOMING: Conditions expected to become as follows by 0100 UTC 23 March 2019
Winds: from the N (350 degrees) at 9 MPH (8 knots; 4.1 m/s)
Visibility: 2.49 miles (4.01 km)
Ceiling: unknown
Clouds: missing
Weather: BR  (mist)